CPX955 Details

Departure: Sacramento International Airport (KSMF)
Arrival: Travis Air Force Base (KSUU)
Notes: EMPTY | NON-REVENUE REPOSITIONING LEG | VFR DEPARTURE RCMD IF WX PERMITS


Current Weather Information
KSMF 190753Z 30005KT 10SM FEW180 SCT250 12/09 A2991 RMK AO2 SLP127 T01170094 402280050
KSUU 190758Z AUTO 23011KT 10SM CLR 12/09 A2991 RMK AO2 SLP135 T01230091 402480052 $